Time;durP1;ratioP1;P1;durP2;ratioP2;P2;SDS_P1;SDS_P2;PMS_P1;PMS_P2;Temp;Humidity;BMP_temperature;BMP_pressure;BME280_temperature;BME280_humidity;BME280_pressure;Samples;Min_cycle;Max_cycle;Signal;HPM_P1;HPM_P2
2022/01/17 00:01:35;;;;;;;45.67;22.40;;;;;;;4.24;68.19;100578.91;5180869;28;20574;-67
2022/01/17 00:04:25;;;;;;;45.38;22.45;;;;;;;4.36;68.43;100575.72;5160388;28;20729;-67
2022/01/17 00:07:15;;;;;;;45.22;23.83;;;;;;;4.33;68.59;100580.25;5181882;28;20188;-67
2022/01/17 00:10:07;;;;;;;51.35;24.08;;;;;;;4.30;68.47;100585.63;5181680;28;20050;-67
2022/01/17 00:12:59;;;;;;;45.78;23.95;;;;;;;4.58;67.85;100596.69;5181870;28;20046;-69
2022/01/17 00:15:55;;;;;;;54.75;26.25;;;;;;;4.45;67.57;100585.84;5176613;28;20064;-69
2022/01/17 00:21:41;;;;;;;49.10;25.98;;;;;;;4.36;67.65;100564.38;5181763;28;20048;-69
2022/01/17 00:24:31;;;;;;;49.60;25.65;;;;;;;4.50;67.75;100590.03;5181719;28;20417;-69
2022/01/17 00:27:20;;;;;;;48.80;24.80;;;;;;;4.53;67.46;100590.75;5181453;28;20188;-69
2022/01/17 00:30:10;;;;;;;47.55;23.95;;;;;;;4.57;68.13;100597.63;5181444;28;20092;-69
2022/01/17 00:33:01;;;;;;;48.38;24.42;;;;;;;4.26;68.65;100610.34;5181960;28;20048;-69
2022/01/17 00:35:51;;;;;;;50.72;23.90;;;;;;;4.06;68.76;100598.03;5181275;28;20184;-69
2022/01/17 00:38:41;;;;;;;52.70;25.58;;;;;;;3.93;69.35;100598.53;5181582;28;20547;-69
2022/01/17 00:41:31;;;;;;;47.38;24.48;;;;;;;3.77;69.45;100607.94;5161130;28;20041;-69
2022/01/17 00:44:22;;;;;;;50.67;24.95;;;;;;;3.87;69.55;100608.41;5161350;28;20184;-69
2022/01/17 00:47:12;;;;;;;54.40;26.73;;;;;;;3.43;70.88;100601.38;5161744;28;20521;-68
2022/01/17 00:50:03;;;;;;;58.75;28.02;;;;;;;4.19;68.33;100602.69;5175900;28;20200;-68
2022/01/17 00:52:53;;;;;;;53.22;27.23;;;;;;;4.27;67.11;100594.50;5185217;28;20542;-68
2022/01/17 00:55:44;;;;;;;55.38;27.02;;;;;;;3.84;69.15;100598.03;5185196;28;20487;-68
2022/01/17 00:58:33;;;;;;;56.53;28.17;;;;;;;4.03;69.10;100608.66;5185402;28;20114;-68
2022/01/17 01:01:23;;;;;;;59.38;28.23;;;;;;;4.19;67.89;100610.59;5149943;28;20100;-68
2022/01/17 01:04:14;;;;;;;63.40;29.13;;;;;;;2.98;70.71;100611.81;5164861;28;20112;-68
2022/01/17 01:07:04;;;;;;;59.53;27.75;;;;;;;2.65;72.21;100624.38;5164457;28;20046;-68
2022/01/17 01:10:05;;;;;;;62.78;29.02;;;;;;;3.17;71.63;100627.72;5177388;28;20096;-68
2022/01/17 01:12:55;;;;;;;62.65;29.40;;;;;;;2.86;71.76;100628.00;5170097;28;20057;-68
2022/01/17 01:15:58;;;;;;;66.15;31.58;;;;;;;3.20;70.64;100633.72;5184668;28;20145;-68
2022/01/17 01:28:07;;;;;;;66.13;31.33;;;;;;;3.65;67.60;100619.78;5184426;28;20090;-68
2022/01/17 01:30:59;;;;;;;67.18;31.60;;;;;;;2.94;70.23;100607.63;5184208;28;20539;-68
2022/01/17 01:33:54;;;;;;;67.03;31.83;;;;;;;2.97;70.66;100621.44;5169860;28;20056;-68
2022/01/17 01:36:47;;;;;;;72.97;32.65;;;;;;;3.05;69.93;100616.81;5185074;28;20049;-68
2022/01/17 01:39:38;;;;;;;67.15;30.83;;;;;;;2.73;71.88;100622.34;5184454;28;20057;-68
2022/01/17 01:42:30;;;;;;;70.65;32.63;;;;;;;2.56;71.91;100615.09;5184427;28;20496;-68
2022/01/17 01:45:21;;;;;;;69.63;31.70;;;;;;;2.64;72.17;100613.03;5184080;28;20532;-68
2022/01/17 01:48:12;;;;;;;67.57;32.92;;;;;;;3.54;68.57;100595.72;5184052;28;20156;-68
2022/01/17 01:51:03;;;;;;;71.63;33.47;;;;;;;3.22;70.53;100600.44;5183503;28;20045;-68
2022/01/17 01:53:53;;;;;;;73.55;32.65;;;;;;;3.63;69.53;100599.75;5183985;28;20077;-68
2022/01/17 01:56:47;;;;;;;71.57;34.10;;;;;;;3.83;68.53;100602.44;5183780;28;20056;-68
2022/01/17 01:59:38;;;;;;;66.70;31.77;;;;;;;3.50;69.07;100605.47;5168104;28;20049;-68
2022/01/17 02:02:28;;;;;;;69.18;32.83;;;;;;;4.21;67.31;100600.88;5183551;28;20052;-68
2022/01/17 02:05:18;;;;;;;71.90;32.45;;;;;;;3.46;69.39;100598.66;5183760;28;20073;-68
2022/01/17 02:08:12;;;;;;;69.53;32.42;;;;;;;3.95;68.34;100604.56;5183418;28;20073;-68
2022/01/17 02:11:02;;;;;;;;;;;;;;;4.11;67.84;100603.97;5183862;28;20448;-68
2022/01/17 02:13:53;;;;;;;71.28;31.42;;;;;;;3.72;69.03;100600.25;5183604;28;19928;-68
2022/01/17 02:16:45;;;;;;;69.03;32.50;;;;;;;3.68;69.39;100598.66;5183816;28;20239;-68
2022/01/17 02:19:44;;;;;;;77.55;32.38;;;;;;;3.63;68.96;100610.25;5183320;28;20073;-68
2022/01/17 02:22:35;;;;;;;72.63;33.05;;;;;;;3.81;68.98;100603.41;5183229;28;20424;-68
2022/01/17 02:25:25;;;;;;;73.00;32.83;;;;;;;4.13;67.79;100608.19;5183443;28;20132;-68
2022/01/17 02:28:15;;;;;;;74.60;34.83;;;;;;;3.92;68.87;100596.81;5183205;28;20112;-68
2022/01/17 02:31:06;;;;;;;75.57;34.55;;;;;;;3.90;68.42;100598.66;5182895;28;20057;-68
2022/01/17 02:33:57;;;;;;;83.10;33.67;;;;;;;4.09;67.84;100601.38;5183176;28;20119;-68
2022/01/17 02:36:46;;;;;;;75.20;33.53;;;;;;;4.00;67.70;100605.22;5182813;28;20064;-68
2022/01/17 02:39:38;;;;;;;71.93;33.67;;;;;;;3.84;68.67;100621.66;5183315;28;20535;-68
2022/01/17 02:42:27;;;;;;;72.82;34.25;;;;;;;3.62;69.78;100608.56;5182737;28;20053;-68
2022/01/17 02:45:36;;;;;;;72.88;33.97;;;;;;;4.00;68.50;100613.09;5168091;28;20053;-68
2022/01/17 02:48:29;;;;;;;79.30;33.80;;;;;;;3.21;70.44;100624.09;5183152;28;20428;-68
2022/01/17 02:51:19;;;;;;;70.65;33.15;;;;;;;4.08;67.55;100627.72;5147610;28;20046;-68
2022/01/17 02:54:09;;;;;;;72.38;32.45;;;;;;;3.88;67.45;100629.38;5161581;28;20501;-68
2022/01/17 02:56:59;;;;;;;72.55;32.90;;;;;;;3.55;69.09;100622.81;5162744;28;20057;-68
2022/01/17 02:59:49;;;;;;;72.95;32.95;;;;;;;3.93;67.91;100634.41;5170853;28;20044;-68
2022/01/17 03:02:39;;;;;;;67.95;32.08;;;;;;;3.45;68.63;100625.78;5182512;28;20033;-68
2022/01/17 03:05:29;;;;;;;72.90;33.08;;;;;;;3.79;67.17;100597.38;5182350;28;20597;-68
2022/01/17 03:08:20;;;;;;;75.47;33.35;;;;;;;4.14;67.35;100616.94;5182720;28;20500;-68
2022/01/17 03:11:13;;;;;;;73.22;32.45;;;;;;;3.91;67.34;100616.13;5162327;28;20045;-68
2022/01/17 03:14:03;;;;;;;67.97;31.65;;;;;;;4.24;66.78;100599.91;5162303;28;20053;-68
2022/01/17 03:16:55;;;;;;;65.63;30.17;;;;;;;4.32;65.85;100602.19;5162239;28;20058;-68
2022/01/17 03:19:45;;;;;;;68.15;30.60;;;;;;;4.10;66.40;100608.31;5172953;28;20173;-68
2022/01/17 03:22:35;;;;;;;65.07;30.70;;;;;;;3.77;67.31;100571.19;5182081;28;20160;-68
2022/01/17 03:25:25;;;;;;;59.38;28.75;;;;;;;4.17;66.45;100601.94;5182360;28;20049;-68
2022/01/17 03:28:16;;;;;;;63.40;29.65;;;;;;;3.47;68.86;100583.75;5181874;28;20073;-68
2022/01/17 03:31:09;;;;;;;64.72;29.35;;;;;;;3.33;68.38;100586.91;5161938;28;20076;-69
2022/01/17 03:33:59;;;;;;;60.38;29.20;;;;;;;3.88;67.52;100582.13;5162249;28;20655;-69
2022/01/17 03:36:49;;;;;;;66.13;29.25;;;;;;;4.02;66.70;100597.31;5161898;28;20157;-69
2022/01/17 03:39:39;;;;;;;60.70;29.42;;;;;;;2.86;70.05;100586.94;5171622;28;20064;-69
2022/01/17 03:42:30;;;;;;;57.38;28.25;;;;;;;2.68;71.12;100621.63;5181889;28;20046;-68
2022/01/17 03:45:20;;;;;;;60.88;27.92;;;;;;;3.04;69.98;100595.88;5182173;28;20053;-69
2022/01/17 03:48:10;;;;;;;64.85;29.50;;;;;;;3.10;69.63;100619.25;5181950;28;20135;-69
2022/01/17 03:51:01;;;;;;;57.63;28.70;;;;;;;3.14;69.70;100627.84;5181794;28;20175;-69
2022/01/17 03:53:51;;;;;;;63.17;29.38;;;;;;;3.22;69.86;100621.41;5182068;28;20072;-68
2022/01/17 03:56:42;;;;;;;62.78;27.38;;;;;;;2.75;71.15;100631.88;5182350;28;20056;-69
2022/01/17 03:59:32;;;;;;;56.75;26.67;;;;;;;2.67;71.72;100623.41;5182134;28;20133;-68
2022/01/17 04:02:22;;;;;;;50.78;25.00;;;;;;;3.84;67.99;100627.78;5182024;28;20049;-68
2022/01/17 04:05:15;;;;;;;56.60;25.35;;;;;;;3.56;68.32;100633.25;5182290;28;20479;-69
2022/01/17 04:08:06;;;;;;;55.08;25.40;;;;;;;3.34;68.77;100614.00;5181927;28;20052;-69
2022/01/17 04:10:56;;;;;;;52.35;24.70;;;;;;;4.01;67.06;100616.59;5182313;28;20176;-70
2022/01/17 04:13:47;;;;;;;56.30;25.42;;;;;;;3.99;66.97;100623.69;5182188;28;20187;-69
2022/01/17 04:16:37;;;;;;;50.92;24.30;;;;;;;3.30;69.50;100621.97;5181860;28;20504;-69
2022/01/17 04:19:27;;;;;;;47.70;22.73;;;;;;;3.36;69.48;100615.66;5167311;28;20072;-70
2022/01/17 04:22:17;;;;;;;47.45;23.15;;;;;;;3.77;68.53;100613.16;5182575;28;20499;-69
2022/01/17 04:25:09;;;;;;;45.90;22.10;;;;;;;3.48;69.09;100601.22;5185682;28;20099;-69
2022/01/17 04:28:01;;;;;;;44.00;22.25;;;;;;;3.86;68.85;100602.31;5185169;28;20580;-68
2022/01/17 04:30:51;;;;;;;48.33;22.52;;;;;;;3.82;67.96;100603.38;5185768;28;20057;-70
2022/01/17 04:33:41;;;;;;;51.65;22.65;;;;;;;3.83;68.21;100618.19;5185987;28;20195;-68
2022/01/17 04:36:31;;;;;;;48.40;22.83;;;;;;;3.37;69.04;100601.63;5185285;28;20535;-68
2022/01/17 04:39:21;;;;;;;51.38;23.10;;;;;;;3.82;68.43;100628.75;5185750;28;20049;-69
2022/01/17 04:42:12;;;;;;;50.78;22.90;;;;;;;4.12;66.91;100627.50;5185555;28;20044;-72
2022/01/17 04:45:10;;;;;;;44.25;22.48;;;;;;;4.12;67.68;100624.88;5170494;28;20050;-70
2022/01/17 04:48:01;;;;;;;49.92;22.90;;;;;;;3.86;68.22;100622.47;5165033;28;20508;-69
2022/01/17 04:50:50;;;;;;;48.47;23.13;;;;;;;3.82;68.06;100621.72;5163793;28;20062;-69
2022/01/17 04:53:42;;;;;;;48.22;23.02;;;;;;;4.20;67.39;100616.69;5164897;28;20193;-69
2022/01/17 04:56:32;;;;;;;49.80;22.92;;;;;;;4.03;67.16;100627.03;5176729;28;20061;-69
2022/01/17 04:59:23;;;;;;;47.55;22.88;;;;;;;3.95;67.54;100624.72;5185413;28;20045;-69
2022/01/17 05:02:13;;;;;;;47.35;22.52;;;;;;;4.32;65.79;100615.31;5184238;28;20045;-69
2022/01/17 05:05:05;;;;;;;46.13;22.67;;;;;;;3.89;68.34;100633.69;5184835;28;20058;-69
2022/01/17 05:07:55;;;;;;;47.80;21.77;;;;;;;4.43;66.33;100641.97;5164404;28;20493;-69
2022/01/17 05:10:50;;;;;;;47.15;22.30;;;;;;;3.85;67.94;100633.88;5183995;28;20057;-69
2022/01/17 05:13:46;;;;;;;46.40;22.58;;;;;;;3.65;69.05;100624.19;5184975;28;20053;-69
2022/01/17 05:16:38;;;;;;;47.72;22.50;;;;;;;3.91;68.63;100625.75;5184555;28;20542;-69
2022/01/17 05:19:48;;;;;;;46.72;22.73;;;;;;;4.12;67.64;100626.66;5185081;28;20127;-70
2022/01/17 05:22:41;;;;;;;43.80;21.83;;;;;;;4.50;66.01;100632.06;5169517;28;20181;-70
2022/01/17 05:25:30;;;;;;;45.47;22.40;;;;;;;4.48;65.82;100622.50;5184630;28;20069;-70
2022/01/17 05:28:20;;;;;;;49.08;22.60;;;;;;;4.14;67.79;100628.31;5184398;28;20056;-70
2022/01/17 05:31:11;;;;;;;48.60;22.90;;;;;;;4.16;67.63;100613.34;5164414;28;20579;-70
2022/01/17 05:34:01;;;;;;;42.03;20.73;;;;;;;4.33;66.70;100619.66;5163122;28;20057;-70
2022/01/17 05:36:51;;;;;;;44.40;21.73;;;;;;;4.30;67.24;100615.38;5163878;28;20038;-71
2022/01/17 05:39:42;;;;;;;46.10;21.25;;;;;;;4.12;67.19;100619.63;5174042;28;20045;-69
2022/01/17 05:42:33;;;;;;;43.47;20.40;;;;;;;4.29;67.49;100612.84;5184020;28;20049;-68
2022/01/17 05:45:24;;;;;;;48.65;21.55;;;;;;;4.29;66.56;100625.97;5184086;28;20072;-69
2022/01/17 05:48:13;;;;;;;40.50;19.30;;;;;;;4.54;66.82;100624.00;5183535;28;20437;-69
2022/01/17 05:51:04;;;;;;;38.55;19.48;;;;;;;4.17;67.32;100625.56;5163714;28;20057;-69
2022/01/17 05:53:53;;;;;;;41.28;20.58;;;;;;;4.41;66.38;100610.53;5163768;28;20173;-69
2022/01/17 05:56:44;;;;;;;51.03;21.40;;;;;;;4.25;67.24;100625.22;5178021;28;20069;-70
2022/01/17 05:59:34;;;;;;;43.95;19.90;;;;;;;4.70;65.72;100630.31;5186578;28;20049;-67
2022/01/17 06:02:29;;;;;;;43.25;19.83;;;;;;;4.44;66.53;100628.81;5192462;28;20049;-70
2022/01/17 06:05:18;;;;;;;43.10;20.58;;;;;;;4.61;66.69;100643.00;5163407;28;20097;-70
2022/01/17 06:08:09;;;;;;;43.63;20.23;;;;;;;4.60;66.20;100633.38;5163724;28;20057;-68
2022/01/17 06:10:59;;;;;;;39.65;19.58;;;;;;;4.56;66.14;100645.78;5179713;28;20531;-68
2022/01/17 06:13:49;;;;;;;37.08;19.38;;;;;;;4.72;65.81;100641.59;5204092;28;20655;-67
2022/01/17 06:16:39;;;;;;;38.42;18.35;;;;;;;4.56;65.99;100648.44;5188873;28;20057;-69
2022/01/17 06:19:30;;;;;;;38.83;18.73;;;;;;;4.45;66.40;100653.28;5195490;28;20068;-68
2022/01/17 06:22:20;;;;;;;39.75;19.45;;;;;;;4.62;66.49;100648.16;5166971;28;20283;-68
2022/01/17 06:25:12;;;;;;;37.78;18.85;;;;;;;4.56;66.69;100627.41;5183718;28;20571;-68
2022/01/17 06:28:02;;;;;;;38.08;18.42;;;;;;;4.71;65.87;100652.19;5182228;28;20049;-68
2022/01/17 06:30:52;;;;;;;35.80;18.13;;;;;;;4.26;67.49;100647.09;5187820;28;20049;-68
2022/01/17 06:33:42;;;;;;;35.30;18.63;;;;;;;4.45;67.66;100662.03;5186871;28;20191;-68
2022/01/17 06:36:32;;;;;;;38.70;18.60;;;;;;;4.70;66.95;100653.09;5182044;28;20120;-69
2022/01/17 06:39:23;;;;;;;36.42;18.10;;;;;;;4.33;67.78;100670.41;5181276;28;20052;-69
2022/01/17 06:42:13;;;;;;;35.45;18.27;;;;;;;4.27;67.52;100677.66;5188050;28;20403;-70
2022/01/17 06:45:05;;;;;;;40.10;19.00;;;;;;;4.29;67.24;100681.94;5192146;28;20041;-68
2022/01/17 06:47:55;;;;;;;35.15;18.15;;;;;;;4.58;66.78;100700.91;5178109;28;20074;-68
2022/01/17 06:50:45;;;;;;;37.25;18.88;;;;;;;4.25;67.65;100690.88;5190158;28;20164;-68
2022/01/17 06:53:35;;;;;;;37.08;18.08;;;;;;;4.46;67.42;100686.50;5175528;28;20087;-68
2022/01/17 06:56:25;;;;;;;32.22;17.42;;;;;;;4.77;66.59;100695.72;5189630;28;20077;-68
2022/01/17 06:59:15;;;;;;;41.30;18.05;;;;;;;4.54;67.50;100700.19;5181648;28;20204;-67
2022/01/17 07:02:08;;;;;;;35.75;18.52;;;;;;;4.62;66.67;100708.59;5174956;28;20092;-69
2022/01/17 07:04:58;;;;;;;33.53;17.65;;;;;;;4.66;66.45;100710.16;5182109;28;20053;-68
2022/01/17 07:07:48;;;;;;;39.72;18.60;;;;;;;4.40;67.14;100681.50;5182332;28;20479;-67
2022/01/17 07:10:38;;;;;;;39.33;19.48;;;;;;;4.90;65.85;100673.25;5182086;28;20423;-68
2022/01/17 07:13:29;;;;;;;41.22;20.65;;;;;;;4.77;66.12;100664.19;5182573;28;20038;-67
2022/01/17 07:16:19;;;;;;;42.45;20.80;;;;;;;4.98;65.77;100675.56;5182397;28;20419;-67
2022/01/17 07:19:09;;;;;;;40.40;20.08;;;;;;;4.93;66.32;100691.50;5182405;28;20046;-68
2022/01/17 07:21:59;;;;;;;40.90;19.15;;;;;;;5.14;65.74;100706.38;5182141;28;20172;-68
2022/01/17 07:25:04;;;;;;;36.30;19.07;;;;;;;4.79;65.94;100725.44;5182451;28;20665;-68
2022/01/17 07:27:57;;;;;;;38.47;18.65;;;;;;;4.66;66.86;100752.22;5181747;28;20434;-67
2022/01/17 07:30:47;;;;;;;38.42;18.73;;;;;;;4.50;67.85;100756.38;5182033;28;20052;-67
2022/01/17 07:33:38;;;;;;;38.13;19.20;;;;;;;4.30;68.65;100761.56;5183038;28;20049;-67
2022/01/17 07:36:28;;;;;;;39.88;19.85;;;;;;;4.65;67.35;100745.25;5181706;28;20048;-66
2022/01/17 07:39:18;;;;;;;38.00;19.13;;;;;;;4.80;66.31;100732.38;5182360;28;20053;-67
2022/01/17 07:42:09;;;;;;;38.67;18.33;;;;;;;4.96;66.96;100736.06;5181695;28;20045;-67
2022/01/17 07:45:08;;;;;;;37.60;18.90;;;;;;;4.95;65.80;100739.63;5162044;28;20074;-67
2022/01/17 07:48:12;;;;;;;40.00;18.92;;;;;;;4.79;65.98;100723.66;5175454;28;20582;-68
2022/01/17 07:51:02;;;;;;;36.47;20.10;;;;;;;4.72;66.24;100766.88;5181242;28;20045;-68
2022/01/17 07:53:54;;;;;;;36.85;18.88;;;;;;;4.56;66.34;100777.16;5179155;28;20049;-68
2022/01/17 07:56:45;;;;;;;41.53;19.55;;;;;;;5.00;65.51;100763.97;5180387;28;20053;-67
2022/01/17 07:59:36;;;;;;;35.30;19.02;;;;;;;5.01;65.83;100752.53;5183493;28;20409;-68
2022/01/17 08:02:26;;;;;;;37.70;18.85;;;;;;;4.68;67.06;100752.16;5184878;28;20088;-68
2022/01/17 08:05:17;;;;;;;46.30;18.83;;;;;;;4.96;65.71;100741.34;5183486;28;20726;-68
2022/01/17 08:08:07;;;;;;;36.78;18.90;;;;;;;4.52;68.55;100737.94;5184838;28;20054;-67
2022/01/17 08:10:57;;;;;;;36.45;20.00;;;;;;;4.34;68.44;100740.41;5182918;28;20436;-68
2022/01/17 08:13:47;;;;;;;31.42;16.83;;;;;;;5.25;64.62;100736.59;5165654;28;20128;-68
2022/01/17 08:16:38;;;;;;;39.05;18.75;;;;;;;4.71;67.80;100731.88;5173222;28;20425;-67
2022/01/17 08:19:28;;;;;;;37.88;19.05;;;;;;;4.47;67.78;100723.22;5185669;28;20044;-68
2022/01/17 08:22:21;;;;;;;35.50;18.08;;;;;;;4.08;69.42;100751.06;5185572;28;20139;-68
2022/01/17 08:25:12;;;;;;;40.75;18.17;;;;;;;3.59;70.56;100734.56;5185098;28;20052;-68
2022/01/17 08:28:02;;;;;;;36.15;18.98;;;;;;;3.97;69.76;100740.97;5184927;28;20052;-68
2022/01/17 08:30:52;;;;;;;47.38;21.83;;;;;;;4.76;67.85;100738.69;5185315;28;20100;-69
2022/01/17 08:34:02;;;;;;;37.33;19.15;;;;;;;4.97;67.21;100743.06;5185637;28;20815;-69
2022/01/17 08:36:53;;;;;;;38.13;18.95;;;;;;;4.78;68.73;100747.38;5185920;28;20545;-68
2022/01/17 08:39:43;;;;;;;36.55;18.20;;;;;;;5.15;66.88;100739.63;5185537;28;20053;-68
2022/01/17 08:42:36;;;;;;;37.25;18.92;;;;;;;5.10;66.64;100749.50;5185357;28;20057;-68
2022/01/17 08:45:27;;;;;;;32.03;17.75;;;;;;;5.39;66.73;100737.69;5185213;28;20172;-68
2022/01/17 08:48:34;;;;;;;34.47;17.70;;;;;;;5.06;67.13;100729.50;5185500;28;20152;-69
2022/01/17 08:51:24;;;;;;;36.75;18.25;;;;;;;5.54;64.97;100737.94;5184155;28;20053;-69
2022/01/17 08:54:14;;;;;;;34.92;18.40;;;;;;;4.78;66.99;100710.59;5183940;28;20070;-68
2022/01/17 08:57:04;;;;;;;39.25;17.75;;;;;;;5.39;66.27;100742.09;5184823;28;20054;-68
2022/01/17 08:59:55;;;;;;;37.88;17.48;;;;;;;4.65;68.07;100754.91;5185090;28;20158;-68
2022/01/17 09:02:45;;;;;;;32.30;17.08;;;;;;;5.27;67.04;100747.91;5184791;28;20049;-68
2022/01/17 09:05:36;;;;;;;36.75;18.60;;;;;;;5.22;65.76;100749.88;5185083;28;20598;-68
2022/01/17 09:08:26;;;;;;;34.15;16.80;;;;;;;5.01;67.14;100757.78;5184593;28;20526;-69
2022/01/17 09:11:17;;;;;;;44.15;16.52;;;;;;;4.97;68.09;100760.59;5184386;28;20805;-69
2022/01/17 09:14:07;;;;;;;30.67;16.38;;;;;;;4.48;69.25;100768.75;5184999;28;20148;-68
2022/01/17 09:16:57;;;;;;;33.53;16.17;;;;;;;4.51;68.92;100752.84;5169993;28;20057;-69
2022/01/17 09:19:48;;;;;;;31.38;17.13;;;;;;;5.03;67.80;100765.59;5184693;28;20093;-69
2022/01/17 09:22:38;;;;;;;29.65;15.18;;;;;;;4.91;67.89;100756.47;5169746;28;20101;-68
2022/01/17 09:25:29;;;;;;;30.15;15.52;;;;;;;4.54;69.09;100763.25;5184293;28;20061;-68
2022/01/17 09:28:19;;;;;;;28.52;14.73;;;;;;;4.92;68.11;100773.94;5183956;28;20065;-69
2022/01/17 09:31:10;;;;;;;27.30;14.73;;;;;;;5.00;68.08;100784.13;5164097;28;20046;-68
2022/01/17 09:34:00;;;;;;;24.60;14.07;;;;;;;5.36;66.85;100795.72;5178568;28;20100;-68
2022/01/17 09:36:52;;;;;;;26.75;13.90;;;;;;;4.38;70.11;100815.53;5183980;28;20199;-68
2022/01/17 09:39:42;;;;;;;24.95;13.43;;;;;;;4.88;68.32;100815.25;5184472;28;20133;-68
2022/01/17 09:42:36;;;;;;;22.40;13.27;;;;;;;4.94;68.05;100814.16;5169950;28;20144;-68
2022/01/17 09:45:26;;;;;;;26.00;12.70;;;;;;;4.92;68.70;100827.34;5169577;28;20104;-68
2022/01/17 09:48:20;;;;;;;29.40;14.43;;;;;;;5.38;67.17;100824.56;5184041;28;20049;-68
2022/01/17 09:51:37;;;;;;;24.58;13.07;;;;;;;4.97;68.19;100805.28;5163491;28;20054;-68
2022/01/17 09:54:31;;;;;;;23.15;12.32;;;;;;;4.22;71.02;100831.00;5163587;28;20049;-68
2022/01/17 09:57:21;;;;;;;23.10;12.57;;;;;;;4.63;71.11;100831.16;5163809;28;20049;-68
2022/01/17 10:00:15;;;;;;;20.05;11.60;;;;;;;4.06;71.34;100847.41;5177557;28;20049;-69
2022/01/17 10:03:08;;;;;;;22.50;11.57;;;;;;;4.18;71.88;100839.91;5184089;28;20048;-68
2022/01/17 10:05:59;;;;;;;19.40;11.27;;;;;;;4.63;70.00;100833.78;5183243;28;20069;-68
2022/01/17 10:09:24;;;;;;;18.33;10.65;;;;;;;4.70;70.00;100852.78;5183436;28;20542;-68
2022/01/17 10:12:16;;;;;;;19.83;11.38;;;;;;;4.55;71.41;100835.03;5183461;28;20184;-68
2022/01/17 10:15:12;;;;;;;19.08;10.88;;;;;;;4.90;70.04;100839.72;5183241;28;20111;-70
2022/01/17 10:18:02;;;;;;;18.75;10.65;;;;;;;4.87;69.76;100844.25;5183878;28;20054;-69
2022/01/17 10:20:58;;;;;;;19.55;10.85;;;;;;;4.45;69.68;100792.50;5182511;28;20099;-69
2022/01/17 10:24:16;;;;;;;19.77;10.48;;;;;;;4.63;70.16;100822.41;5183004;28;20416;-69
2022/01/17 10:30:39;;;;;;;17.52;10.52;;;;;;;4.37;71.01;100818.19;5183071;28;20053;-69
2022/01/17 10:36:45;;;;;;;17.15;9.90;;;;;;;4.53;71.78;100827.19;5183060;28;20135;-69
2022/01/17 10:39:38;;;;;;;18.25;10.75;;;;;;;4.70;70.17;100826.50;5183091;28;20049;-69
2022/01/17 10:42:35;;;;;;;18.30;9.48;;;;;;;3.88;72.52;100854.19;5183200;28;20057;-69
2022/01/17 10:45:33;;;;;;;19.10;9.98;;;;;;;4.66;70.72;100864.34;5169769;28;20061;-69
2022/01/17 10:48:36;;;;;;;16.42;9.63;;;;;;;4.81;70.64;100852.38;5163251;28;20058;-69
2022/01/17 10:51:33;;;;;;;23.25;10.82;;;;;;;4.07;73.15;100849.09;5168412;28;20049;-69
2022/01/17 10:54:23;;;;;;;20.13;11.00;;;;;;;4.11;72.92;100838.44;5168130;28;20045;-69
2022/01/17 10:57:13;;;;;;;16.05;9.93;;;;;;;4.92;69.82;100847.53;5182616;28;20107;-69
2022/01/17 11:00:08;;;;;;;17.95;10.30;;;;;;;4.19;72.96;100852.13;5183308;28;20524;-69
2022/01/17 11:03:07;;;;;;;17.45;9.35;;;;;;;4.19;72.09;100853.91;5183051;28;20064;-69
2022/01/17 11:06:02;;;;;;;17.60;10.32;;;;;;;5.18;69.73;100857.81;5182445;28;20053;-68
2022/01/17 11:08:52;;;;;;;16.13;9.68;;;;;;;5.01;69.35;100836.66;5181961;28;20700;-69
2022/01/17 11:11:42;;;;;;;19.88;10.77;;;;;;;5.21;69.25;100856.00;5167812;28;20060;-69
2022/01/17 11:14:35;;;;;;;18.50;10.40;;;;;;;4.82;71.16;100844.41;5182818;28;20112;-69
2022/01/17 11:17:38;;;;;;;17.52;10.27;;;;;;;4.54;71.04;100852.56;5182239;28;20551;-68
2022/01/17 11:20:28;;;;;;;17.38;10.05;;;;;;;4.52;70.49;100853.53;5181761;28;20053;-68
2022/01/17 11:23:21;;;;;;;19.63;10.23;;;;;;;3.86;73.58;100853.38;5167441;28;20045;-69
2022/01/17 11:26:12;;;;;;;18.08;10.80;;;;;;;4.69;71.25;100870.31;5180631;28;20112;-69
2022/01/17 11:29:02;;;;;;;17.35;10.20;;;;;;;4.34;71.78;100862.94;5180195;28;20048;-68
2022/01/17 11:31:52;;;;;;;24.27;11.93;;;;;;;3.82;73.51;100851.78;5152932;28;20056;-69
2022/01/17 11:34:42;;;;;;;20.08;10.77;;;;;;;4.21;73.34;100860.81;5181307;28;20042;-68
2022/01/17 11:37:39;;;;;;;20.27;11.52;;;;;;;3.87;74.23;100839.34;5179610;28;20091;-68
2022/01/17 11:40:32;;;;;;;18.58;11.10;;;;;;;4.36;72.48;100827.84;5181264;28;20045;-68
2022/01/17 11:43:33;;;;;;;19.40;11.18;;;;;;;5.10;70.99;100841.53;5180711;28;20049;-68
2022/01/17 11:46:27;;;;;;;18.10;11.20;;;;;;;5.45;69.64;100836.53;5180718;28;20064;-68
2022/01/17 11:49:25;;;;;;;19.48;10.13;;;;;;;5.16;71.00;100836.00;5181825;28;20069;-68
2022/01/17 11:52:28;;;;;;;19.25;10.00;;;;;;;4.94;71.36;100845.72;5164546;28;20160;-68
2022/01/17 11:55:41;;;;;;;14.68;9.73;;;;;;;4.82;71.57;100822.53;5164919;28;20065;-68
2022/01/17 11:58:39;;;;;;;17.15;10.70;;;;;;;5.41;70.19;100788.47;5181520;28;20108;-68
2022/01/17 12:01:29;;;;;;;18.02;10.43;;;;;;;4.80;71.43;100771.81;5176649;28;20532;-68
2022/01/17 12:04:19;;;;;;;18.02;10.88;;;;;;;4.02;73.87;100786.28;5179530;28;20068;-68
2022/01/17 12:07:09;;;;;;;16.05;10.27;;;;;;;5.19;69.89;100808.72;5165540;28;20204;-70
2022/01/17 12:10:07;;;;;;;20.95;11.40;;;;;;;5.13;70.89;100843.16;5181346;28;20077;-69
2022/01/17 12:13:19;;;;;;;21.83;11.93;;;;;;;4.37;72.33;100839.19;5166716;28;20626;-71
2022/01/17 12:16:27;;;;;;;18.58;11.70;;;;;;;4.54;72.74;100834.16;5181096;28;20157;-71
2022/01/17 12:19:21;;;;;;;19.75;11.95;;;;;;;4.65;71.55;100828.47;5181159;28;20077;-71
2022/01/17 12:22:12;;;;;;;21.20;12.38;;;;;;;4.67;71.18;100830.13;5180892;28;20057;-69
2022/01/17 12:25:24;;;;;;;23.98;13.95;;;;;;;5.02;71.33;100837.50;5181121;28;20057;-69
2022/01/17 12:28:17;;;;;;;24.25;12.75;;;;;;;5.24;69.29;100785.72;5166422;28;20503;-70
2022/01/17 12:31:11;;;;;;;25.33;13.73;;;;;;;4.13;73.33;100812.13;5180651;28;20666;-68
2022/01/17 12:34:23;;;;;;;23.38;13.00;;;;;;;4.34;72.91;100829.69;5161120;28;20049;-68
2022/01/17 12:38:08;;;;;;;25.55;13.52;;;;;;;5.28;70.20;100818.84;5160689;28;20077;-67
2022/01/17 12:41:36;;;;;;;26.73;13.63;;;;;;;5.51;68.53;100809.97;5160436;28;20144;-68
2022/01/17 12:44:28;;;;;;;21.60;13.10;;;;;;;5.52;68.69;100809.03;5163260;28;20077;-68
2022/01/17 12:47:19;;;;;;;23.02;13.35;;;;;;;6.13;67.04;100807.25;5164392;28;20463;-69
2022/01/17 12:50:27;;;;;;;27.83;13.23;;;;;;;5.24;68.64;100803.28;5178403;28;20778;-69
2022/01/17 12:53:19;;;;;;;;;;;;;;;4.74;70.19;100801.00;5185331;28;20053;-68
2022/01/17 12:56:09;;;;;;;22.40;12.30;;;;;;;4.38;71.65;100768.25;5182912;28;19952;-68
2022/01/17 12:59:02;;;;;;;25.83;13.05;;;;;;;4.97;69.25;100805.28;5183230;28;20096;-68
2022/01/17 13:01:58;;;;;;;23.40;13.02;;;;;;;4.81;70.38;100812.97;5183398;28;20254;-68
2022/01/17 13:04:49;;;;;;;21.75;12.48;;;;;;;5.29;69.25;100806.56;5188134;28;20555;-68
2022/01/17 13:07:41;;;;;;;24.75;12.93;;;;;;;5.42;68.79;100790.16;5194034;28;20072;-67
2022/01/17 13:10:32;;;;;;;20.88;12.13;;;;;;;4.84;70.19;100791.81;5173563;28;20242;-68
2022/01/17 13:13:23;;;;;;;23.73;13.73;;;;;;;5.30;69.33;100787.25;5183469;28;20046;-68
2022/01/17 13:16:16;;;;;;;26.05;13.15;;;;;;;5.45;68.22;100783.91;5183591;28;20042;-69
2022/01/17 13:19:09;;;;;;;25.58;13.10;;;;;;;6.00;66.54;100763.03;5181811;28;20065;-68
2022/01/17 13:21:59;;;;;;;25.43;12.80;;;;;;;5.46;67.18;100746.16;5182852;28;20140;-68
2022/01/17 13:25:02;;;;;;;24.55;12.98;;;;;;;5.36;68.84;100766.78;5197431;28;20300;-68
2022/01/17 13:27:57;;;;;;;22.88;11.65;;;;;;;4.56;71.41;100777.16;5184315;28;20534;-68
2022/01/17 13:30:48;;;;;;;21.55;11.95;;;;;;;4.50;70.65;100779.16;5188733;28;20526;-68
2022/01/17 13:33:41;;;;;;;23.08;12.32;;;;;;;5.05;68.82;100764.59;5171090;28;20455;-68